createdAt,value
2022-08-19T00:04:58.737Z,135.00
2022-08-19T00:19:58.537Z,135.00
2022-08-19T00:34:58.703Z,135.00
2022-08-19T00:49:58.632Z,135.00
2022-08-19T01:04:58.808Z,135.00
2022-08-19T01:19:58.895Z,135.00
2022-08-19T01:34:58.750Z,135.00
2022-08-19T01:49:58.649Z,135.00
2022-08-19T02:16:47.256Z,135.00
2022-08-19T02:31:46.999Z,135.00
2022-08-19T02:46:47.010Z,135.00
2022-08-19T03:01:47.255Z,135.00
2022-08-19T03:16:47.336Z,135.00
2022-08-19T03:31:52.714Z,135.00
2022-08-19T03:46:47.267Z,135.00
2022-08-19T04:01:47.303Z,135.00
2022-08-19T04:16:47.170Z,135.00
2022-08-19T04:31:47.425Z,135.00
2022-08-19T04:46:51.536Z,135.00
2022-08-19T07:34:36.040Z,134.46
2022-08-19T07:49:36.044Z,270.79
2022-08-19T08:04:36.086Z,260.31
2022-08-19T08:19:35.997Z,282.33
2022-08-19T08:34:35.896Z,273.66
2022-08-19T08:49:35.997Z,276.21
2022-08-19T09:04:36.039Z,246.77
2022-08-19T09:19:36.117Z,270.48
2022-08-19T09:34:37.700Z,279.92
2022-08-19T09:49:35.979Z,264.37
2022-08-19T10:04:36.137Z,271.22
2022-08-19T10:19:36.090Z,260.75
2022-08-19T10:34:36.008Z,276.43
2022-08-19T10:49:35.978Z,258.68
2022-08-19T11:04:36.010Z,264.57
2022-08-19T11:19:36.094Z,273.58
2022-08-19T11:34:36.142Z,269.21
2022-08-19T11:49:36.153Z,269.72
2022-08-19T12:04:36.142Z,267.55
2022-08-19T12:19:36.186Z,273.61
2022-08-19T12:34:36.063Z,278.79
2022-08-19T12:49:54.005Z,270.75
2022-08-19T13:04:36.168Z,278.32
2022-08-19T13:19:36.160Z,270.05
2022-08-19T13:34:36.288Z,276.73
2022-08-19T13:49:36.225Z,266.63
2022-08-19T14:04:36.223Z,287.01
2022-08-19T14:19:36.212Z,277.18
2022-08-19T14:34:36.212Z,273.71
2022-08-19T14:49:42.996Z,277.13
2022-08-19T15:04:36.343Z,290.69
2022-08-19T15:19:36.257Z,281.47
2022-08-19T15:34:36.302Z,294.71
2022-08-19T15:49:36.388Z,280.73
2022-08-19T16:04:36.488Z,280.85
2022-08-19T16:19:36.574Z,285.45
2022-08-19T16:34:36.423Z,274.00
2022-08-19T16:49:53.708Z,297.68
2022-08-19T17:04:36.426Z,294.98
2022-08-19T17:19:36.473Z,273.29
2022-08-19T17:34:36.628Z,278.87
2022-08-19T17:49:36.633Z,278.18
2022-08-19T18:04:36.517Z,259.79
2022-08-19T18:19:41.030Z,262.93
2022-08-19T18:34:36.553Z,278.25
2022-08-19T18:49:36.777Z,268.75
2022-08-19T19:04:36.545Z,261.50
2022-08-19T19:19:36.610Z,253.05
2022-08-19T19:34:36.551Z,266.93
2022-08-19T19:49:48.328Z,272.43
2022-08-19T20:04:36.726Z,262.26
2022-08-19T20:19:36.792Z,261.18
2022-08-19T20:34:36.506Z,248.23
2022-08-19T20:49:36.585Z,237.86
2022-08-19T21:04:36.575Z,227.60
2022-08-19T21:19:36.634Z,248.63
2022-08-19T21:34:36.616Z,263.25
2022-08-19T21:49:36.632Z,277.94
2022-08-19T22:04:36.541Z,256.05
2022-08-19T22:19:36.792Z,252.68
2022-08-19T22:34:36.671Z,241.53
2022-08-19T22:49:36.611Z,279.62
2022-08-19T23:04:36.679Z,286.59
2022-08-19T23:19:36.694Z,254.40
2022-08-19T23:34:36.648Z,262.13
2022-08-19T23:49:36.785Z,263.34
